sensor_id;sensor_type;location;lat;lon;timestamp;pressure;altitude;pressure_sealevel;temperature;humidity
47670;BME280;33408;52.062;11.722;2022-10-16T00:01:45;100744.44;;;15.61;100.00
47670;BME280;33408;52.062;11.722;2022-10-16T00:04:12;100738.53;;;15.56;100.00
47670;BME280;33408;52.062;11.722;2022-10-16T00:06:39;100739.50;;;15.53;100.00
47670;BME280;33408;52.062;11.722;2022-10-16T00:09:06;100753.00;;;15.42;100.00
47670;BME280;33408;52.062;11.722;2022-10-16T00:11:37;100753.16;;;15.83;100.00
47670;BME280;33408;52.062;11.722;2022-10-16T00:14:06;100744.66;;;16.41;100.00
47670;BME280;33408;52.062;11.722;2022-10-16T00:16:33;100746.63;;;16.57;100.00
47670;BME280;33408;52.062;11.722;2022-10-16T00:19:00;100737.66;;;16.63;100.00
47670;BME280;33408;52.062;11.722;2022-10-16T00:21:28;100748.06;;;16.64;100.00
47670;BME280;33408;52.062;11.722;2022-10-16T00:23:57;100733.13;;;16.66;100.00
47670;BME280;33408;52.062;11.722;2022-10-16T00:26:25;100740.34;;;16.61;100.00
47670;BME280;33408;52.062;11.722;2022-10-16T00:28:53;100748.69;;;16.69;100.00
47670;BME280;33408;52.062;11.722;2022-10-16T00:31:21;100745.78;;;16.36;100.00
47670;BME280;33408;52.062;11.722;2022-10-16T00:33:48;100753.31;;;16.01;100.00
47670;BME280;33408;52.062;11.722;2022-10-16T00:36:17;100753.81;;;15.89;100.00
47670;BME280;33408;52.062;11.722;2022-10-16T00:38:44;100747.59;;;15.69;100.00
47670;BME280;33408;52.062;11.722;2022-10-16T00:41:13;100761.56;;;15.46;100.00
47670;BME280;33408;52.062;11.722;2022-10-16T00:43:42;100758.06;;;15.45;100.00
47670;BME280;33408;52.062;11.722;2022-10-16T00:46:16;100766.47;;;15.31;100.00
47670;BME280;33408;52.062;11.722;2022-10-16T00:48:48;100771.06;;;15.25;100.00
47670;BME280;33408;52.062;11.722;2022-10-16T00:51:19;100766.91;;;15.19;100.00
47670;BME280;33408;52.062;11.722;2022-10-16T00:53:48;100767.03;;;15.16;100.00
47670;BME280;33408;52.062;11.722;2022-10-16T00:56:16;100769.16;;;15.05;100.00
47670;BME280;33408;52.062;11.722;2022-10-16T00:58:42;100773.78;;;14.98;100.00
47670;BME280;33408;52.062;11.722;2022-10-16T01:01:09;100776.31;;;15.00;100.00
47670;BME280;33408;52.062;11.722;2022-10-16T01:03:37;100774.84;;;14.92;100.00
47670;BME280;33408;52.062;11.722;2022-10-16T01:06:22;100779.41;;;14.86;100.00
47670;BME280;33408;52.062;11.722;2022-10-16T01:09:08;100779.81;;;14.75;100.00
47670;BME280;33408;52.062;11.722;2022-10-16T01:11:41;100790.47;;;14.69;100.00
47670;BME280;33408;52.062;11.722;2022-10-16T01:14:14;100797.38;;;14.70;100.00
47670;BME280;33408;52.062;11.722;2022-10-16T01:16:48;100800.94;;;14.67;100.00
47670;BME280;33408;52.062;11.722;2022-10-16T01:19:23;100788.16;;;14.59;100.00
47670;BME280;33408;52.062;11.722;2022-10-16T01:21:53;100796.00;;;14.58;100.00
47670;BME280;33408;52.062;11.722;2022-10-16T01:24:30;100808.22;;;14.57;100.00
47670;BME280;33408;52.062;11.722;2022-10-16T01:27:07;100814.41;;;14.53;100.00
47670;BME280;33408;52.062;11.722;2022-10-16T01:29:40;100803.25;;;14.50;100.00
47670;BME280;33408;52.062;11.722;2022-10-16T01:32:15;100812.88;;;14.48;100.00
47670;BME280;33408;52.062;11.722;2022-10-16T01:34:48;100818.84;;;14.51;100.00
47670;BME280;33408;52.062;11.722;2022-10-16T01:37:20;100817.19;;;14.49;100.00
47670;BME280;33408;52.062;11.722;2022-10-16T01:39:49;100818.09;;;14.48;100.00
47670;BME280;33408;52.062;11.722;2022-10-16T01:42:21;100811.22;;;14.45;100.00
47670;BME280;33408;52.062;11.722;2022-10-16T01:44:49;100807.81;;;14.43;100.00
47670;BME280;33408;52.062;11.722;2022-10-16T01:47:18;100805.91;;;14.48;100.00
47670;BME280;33408;52.062;11.722;2022-10-16T01:49:49;100812.19;;;14.43;100.00
47670;BME280;33408;52.062;11.722;2022-10-16T01:52:20;100806.16;;;14.40;100.00
47670;BME280;33408;52.062;11.722;2022-10-16T01:54:51;100803.94;;;14.30;100.00
47670;BME280;33408;52.062;11.722;2022-10-16T01:57:21;100799.59;;;14.29;100.00
47670;BME280;33408;52.062;11.722;2022-10-16T01:59:51;100820.38;;;14.32;100.00
47670;BME280;33408;52.062;11.722;2022-10-16T02:02:20;100822.03;;;14.33;100.00
47670;BME280;33408;52.062;11.722;2022-10-16T02:04:50;100823.91;;;14.29;100.00
47670;BME280;33408;52.062;11.722;2022-10-16T02:07:19;100819.38;;;14.34;100.00
47670;BME280;33408;52.062;11.722;2022-10-16T02:09:46;100822.97;;;14.32;100.00
47670;BME280;33408;52.062;11.722;2022-10-16T02:12:15;100812.50;;;14.33;100.00
47670;BME280;33408;52.062;11.722;2022-10-16T02:14:47;100807.13;;;14.38;100.00
47670;BME280;33408;52.062;11.722;2022-10-16T02:17:15;100816.72;;;14.36;100.00
47670;BME280;33408;52.062;11.722;2022-10-16T02:19:42;100819.19;;;14.40;100.00
47670;BME280;33408;52.062;11.722;2022-10-16T02:22:15;100821.66;;;14.45;100.00
47670;BME280;33408;52.062;11.722;2022-10-16T02:24:50;100813.94;;;14.42;100.00
47670;BME280;33408;52.062;11.722;2022-10-16T02:27:20;100819.09;;;14.44;100.00
47670;BME280;33408;52.062;11.722;2022-10-16T02:29:54;100821.06;;;14.37;100.00
47670;BME280;33408;52.062;11.722;2022-10-16T02:32:28;100822.63;;;14.43;100.00
47670;BME280;33408;52.062;11.722;2022-10-16T02:34:57;100818.31;;;14.41;100.00
47670;BME280;33408;52.062;11.722;2022-10-16T02:37:25;100817.38;;;14.44;100.00
47670;BME280;33408;52.062;11.722;2022-10-16T02:39:53;100821.66;;;14.45;100.00
47670;BME280;33408;52.062;11.722;2022-10-16T02:42:20;100821.75;;;14.42;100.00
47670;BME280;33408;52.062;11.722;2022-10-16T02:44:46;100831.25;;;14.45;100.00
47670;BME280;33408;52.062;11.722;2022-10-16T02:47:14;100827.91;;;14.41;100.00
47670;BME280;33408;52.062;11.722;2022-10-16T02:49:41;100834.78;;;14.42;100.00
47670;BME280;33408;52.062;11.722;2022-10-16T02:52:07;100830.66;;;14.36;100.00
47670;BME280;33408;52.062;11.722;2022-10-16T02:54:34;100834.09;;;14.37;100.00
47670;BME280;33408;52.062;11.722;2022-10-16T02:57:00;100834.09;;;14.37;100.00
47670;BME280;33408;52.062;11.722;2022-10-16T02:59:27;100846.25;;;14.38;100.00
47670;BME280;33408;52.062;11.722;2022-10-16T03:01:53;100845.31;;;14.39;100.00
47670;BME280;33408;52.062;11.722;2022-10-16T03:04:21;100845.47;;;14.34;100.00
47670;BME280;33408;52.062;11.722;2022-10-16T03:06:47;100849.84;;;14.34;100.00
47670;BME280;33408;52.062;11.722;2022-10-16T03:09:14;100850.63;;;14.36;100.00
47670;BME280;33408;52.062;11.722;2022-10-16T03:11:40;100857.38;;;14.43;100.00
47670;BME280;33408;52.062;11.722;2022-10-16T03:14:07;100865.91;;;14.48;100.00
47670;BME280;33408;52.062;11.722;2022-10-16T03:16:33;100859.09;;;14.44;100.00
47670;BME280;33408;52.062;11.722;2022-10-16T03:19:00;100858.88;;;14.50;100.00
47670;BME280;33408;52.062;11.722;2022-10-16T03:21:28;100860.53;;;14.53;100.00
47670;BME280;33408;52.062;11.722;2022-10-16T03:23:55;100842.41;;;14.48;100.00
47670;BME280;33408;52.062;11.722;2022-10-16T03:26:21;100834.75;;;14.44;100.00
47670;BME280;33408;52.062;11.722;2022-10-16T03:28:48;100845.13;;;14.45;100.00
47670;BME280;33408;52.062;11.722;2022-10-16T03:31:14;100852.84;;;14.48;100.00
47670;BME280;33408;52.062;11.722;2022-10-16T03:33:41;100856.25;;;14.50;100.00
47670;BME280;33408;52.062;11.722;2022-10-16T03:36:07;100847.69;;;14.47;100.00
47670;BME280;33408;52.062;11.722;2022-10-16T03:38:35;100847.53;;;14.51;100.00
47670;BME280;33408;52.062;11.722;2022-10-16T03:41:02;100852.66;;;14.54;100.00
47670;BME280;33408;52.062;11.722;2022-10-16T03:43:29;100856.00;;;14.59;100.00
47670;BME280;33408;52.062;11.722;2022-10-16T03:45:55;100846.41;;;14.60;100.00
47670;BME280;33408;52.062;11.722;2022-10-16T03:48:22;100849.00;;;14.60;100.00
47670;BME280;33408;52.062;11.722;2022-10-16T03:50:48;100846.25;;;14.65;100.00
47670;BME280;33408;52.062;11.722;2022-10-16T03:53:15;100841.97;;;14.64;100.00
47670;BME280;33408;52.062;11.722;2022-10-16T03:55:44;100847.97;;;14.66;100.00
47670;BME280;33408;52.062;11.722;2022-10-16T03:58:11;100846.06;;;14.71;100.00
47670;BME280;33408;52.062;11.722;2022-10-16T04:00:40;100837.22;;;14.75;100.00
47670;BME280;33408;52.062;11.722;2022-10-16T04:03:06;100849.56;;;14.70;100.00
47670;BME280;33408;52.062;11.722;2022-10-16T04:05:33;100860.75;;;14.73;100.00
47670;BME280;33408;52.062;11.722;2022-10-16T04:07:59;100851.63;;;14.60;100.00
47670;BME280;33408;52.062;11.722;2022-10-16T04:10:26;100853.88;;;14.71;100.00
47670;BME280;33408;52.062;11.722;2022-10-16T04:12:54;100856.53;;;14.69;100.00
47670;BME280;33408;52.062;11.722;2022-10-16T04:15:21;100857.47;;;14.68;100.00
47670;BME280;33408;52.062;11.722;2022-10-16T04:17:47;100845.16;;;14.72;100.00
47670;BME280;33408;52.062;11.722;2022-10-16T04:20:14;100841.72;;;14.70;100.00
47670;BME280;33408;52.062;11.722;2022-10-16T04:22:40;100855.59;;;14.72;100.00
47670;BME280;33408;52.062;11.722;2022-10-16T04:25:07;100860.00;;;14.70;100.00
47670;BME280;33408;52.062;11.722;2022-10-16T04:27:34;100868.53;;;14.75;100.00
47670;BME280;33408;52.062;11.722;2022-10-16T04:30:03;100878.16;;;14.73;100.00
47670;BME280;33408;52.062;11.722;2022-10-16T04:32:29;100879.22;;;14.67;100.00
47670;BME280;33408;52.062;11.722;2022-10-16T04:34:56;100869.34;;;14.77;100.00
47670;BME280;33408;52.062;11.722;2022-10-16T04:37:23;100876.56;;;14.69;100.00
47670;BME280;33408;52.062;11.722;2022-10-16T04:39:50;100868.66;;;14.72;100.00
47670;BME280;33408;52.062;11.722;2022-10-16T04:42:16;100880.81;;;14.71;100.00
47670;BME280;33408;52.062;11.722;2022-10-16T04:44:43;100884.25;;;14.73;100.00
47670;BME280;33408;52.062;11.722;2022-10-16T04:47:11;100887.69;;;14.74;100.00
47670;BME280;33408;52.062;11.722;2022-10-16T04:49:37;100908.81;;;14.66;100.00
47670;BME280;33408;52.062;11.722;2022-10-16T04:52:04;100903.50;;;14.69;100.00
47670;BME280;33408;52.062;11.722;2022-10-16T04:54:31;100898.94;;;14.76;100.00
47670;BME280;33408;52.062;11.722;2022-10-16T04:56:57;100906.81;;;14.74;100.00
47670;BME280;33408;52.062;11.722;2022-10-16T04:59:24;100892.97;;;14.72;100.00
47670;BME280;33408;52.062;11.722;2022-10-16T05:01:50;100895.63;;;14.71;100.00
47670;BME280;33408;52.062;11.722;2022-10-16T05:04:18;100888.97;;;14.62;100.00
47670;BME280;33408;52.062;11.722;2022-10-16T05:06:45;100896.59;;;14.68;100.00
47670;BME280;33408;52.062;11.722;2022-10-16T05:09:11;100897.63;;;14.63;100.00
47670;BME280;33408;52.062;11.722;2022-10-16T05:11:37;100896.84;;;14.61;100.00
47670;BME280;33408;52.062;11.722;2022-10-16T05:14:04;100899.53;;;14.57;100.00
47670;BME280;33408;52.062;11.722;2022-10-16T05:16:31;100899.81;;;14.48;100.00
47670;BME280;33408;52.062;11.722;2022-10-16T05:18:57;100894.69;;;14.45;100.00
47670;BME280;33408;52.062;11.722;2022-10-16T05:21:25;100887.78;;;14.44;100.00
47670;BME280;33408;52.062;11.722;2022-10-16T05:23:53;100889.47;;;14.45;100.00
47670;BME280;33408;52.062;11.722;2022-10-16T05:26:20;100897.28;;;14.45;100.00
47670;BME280;33408;52.062;11.722;2022-10-16T05:28:47;100900.19;;;14.36;100.00
47670;BME280;33408;52.062;11.722;2022-10-16T05:31:13;100901.91;;;14.37;100.00
47670;BME280;33408;52.062;11.722;2022-10-16T05:33:40;100911.50;;;14.36;100.00
47670;BME280;33408;52.062;11.722;2022-10-16T05:36:08;100915.13;;;14.31;100.00
47670;BME280;33408;52.062;11.722;2022-10-16T05:38:37;100914.16;;;14.35;100.00
47670;BME280;33408;52.062;11.722;2022-10-16T05:41:04;100911.59;;;14.33;100.00
47670;BME280;33408;52.062;11.722;2022-10-16T05:43:31;100905.84;;;14.22;100.00
47670;BME280;33408;52.062;11.722;2022-10-16T05:45:59;100917.06;;;14.24;100.00
47670;BME280;33408;52.062;11.722;2022-10-16T05:48:26;100922.28;;;14.24;100.00
47670;BME280;33408;52.062;11.722;2022-10-16T05:50:57;100930.88;;;14.28;100.00
47670;BME280;33408;52.062;11.722;2022-10-16T05:53:24;100930.91;;;14.26;100.00
47670;BME280;33408;52.062;11.722;2022-10-16T05:55:53;100945.72;;;14.26;100.00
47670;BME280;33408;52.062;11.722;2022-10-16T05:58:20;100948.22;;;14.29;100.00
47670;BME280;33408;52.062;11.722;2022-10-16T06:00:53;100957.06;;;14.23;100.00
47670;BME280;33408;52.062;11.722;2022-10-16T06:03:19;100950.25;;;14.19;100.00
47670;BME280;33408;52.062;11.722;2022-10-16T06:05:45;100951.03;;;14.22;100.00
47670;BME280;33408;52.062;11.722;2022-10-16T06:08:12;100946.50;;;14.28;100.00
47670;BME280;33408;52.062;11.722;2022-10-16T06:10:38;100937.75;;;14.30;100.00
47670;BME280;33408;52.062;11.722;2022-10-16T06:13:06;100932.34;;;14.36;100.00
47670;BME280;33408;52.062;11.722;2022-10-16T06:15:33;100932.31;;;14.38;100.00
47670;BME280;33408;52.062;11.722;2022-10-16T06:17:59;100933.72;;;14.48;100.00
47670;BME280;33408;52.062;11.722;2022-10-16T06:20:26;100930.81;;;14.57;100.00
47670;BME280;33408;52.062;11.722;2022-10-16T06:22:52;100930.88;;;14.56;100.00
47670;BME280;33408;52.062;11.722;2022-10-16T06:25:19;100942.03;;;14.61;100.00
47670;BME280;33408;52.062;11.722;2022-10-16T06:27:45;100945.41;;;14.65;100.00
47670;BME280;33408;52.062;11.722;2022-10-16T06:30:13;100944.38;;;14.70;100.00
47670;BME280;33408;52.062;11.722;2022-10-16T06:32:40;100937.47;;;14.68;100.00
47670;BME280;33408;52.062;11.722;2022-10-16T06:35:07;100930.25;;;14.76;100.00
47670;BME280;33408;52.062;11.722;2022-10-16T06:37:33;100936.25;;;14.80;100.00
47670;BME280;33408;52.062;11.722;2022-10-16T06:40:00;100962.06;;;14.87;100.00
47670;BME280;33408;52.062;11.722;2022-10-16T06:42:29;100975.16;;;14.86;100.00
47670;BME280;33408;52.062;11.722;2022-10-16T06:44:55;100988.03;;;14.92;100.00
47670;BME280;33408;52.062;11.722;2022-10-16T06:47:23;101008.25;;;14.85;100.00
47670;BME280;33408;52.062;11.722;2022-10-16T06:49:50;101005.31;;;14.96;100.00
47670;BME280;33408;52.062;11.722;2022-10-16T06:52:16;100986.00;;;15.00;100.00
47670;BME280;33408;52.062;11.722;2022-10-16T06:54:43;100984.22;;;15.02;100.00
47670;BME280;33408;52.062;11.722;2022-10-16T06:57:09;100973.94;;;14.98;100.00
47670;BME280;33408;52.062;11.722;2022-10-16T06:59:36;100989.13;;;15.11;100.00
47670;BME280;33408;52.062;11.722;2022-10-16T07:02:02;100994.03;;;15.21;100.00
47670;BME280;33408;52.062;11.722;2022-10-16T07:04:30;100991.88;;;15.34;100.00
47670;BME280;33408;52.062;11.722;2022-10-16T07:06:57;100995.28;;;15.36;100.00
47670;BME280;33408;52.062;11.722;2022-10-16T07:09:24;101009.94;;;15.40;100.00
47670;BME280;33408;52.062;11.722;2022-10-16T07:11:50;101022.13;;;15.41;100.00
47670;BME280;33408;52.062;11.722;2022-10-16T07:14:18;101017.63;;;15.44;100.00
47670;BME280;33408;52.062;11.722;2022-10-16T07:16:45;101024.41;;;15.50;100.00
47670;BME280;33408;52.062;11.722;2022-10-16T07:19:12;101024.03;;;15.61;100.00
47670;BME280;33408;52.062;11.722;2022-10-16T07:21:41;101020.38;;;15.66;100.00
47670;BME280;33408;52.062;11.722;2022-10-16T07:24:11;101025.47;;;15.69;100.00
47670;BME280;33408;52.062;11.722;2022-10-16T07:26:39;101025.34;;;15.73;100.00
47670;BME280;33408;52.062;11.722;2022-10-16T07:29:06;101028.94;;;15.70;100.00
47670;BME280;33408;52.062;11.722;2022-10-16T07:31:33;101027.78;;;15.79;100.00
47670;BME280;33408;52.062;11.722;2022-10-16T07:34:00;101024.81;;;15.90;100.00
47670;BME280;33408;52.062;11.722;2022-10-16T07:36:26;101028.72;;;16.01;100.00
47670;BME280;33408;52.062;11.722;2022-10-16T07:38:54;101035.28;;;16.13;100.00
47670;BME280;33408;52.062;11.722;2022-10-16T07:41:21;101040.31;;;16.18;100.00
47670;BME280;33408;52.062;11.722;2022-10-16T07:43:48;101047.72;;;16.30;100.00
47670;BME280;33408;52.062;11.722;2022-10-16T07:46:16;101055.78;;;16.48;100.00
47670;BME280;33408;52.062;11.722;2022-10-16T07:48:43;101064.53;;;16.47;100.00
47670;BME280;33408;52.062;11.722;2022-10-16T07:51:13;101064.44;;;16.50;100.00
47670;BME280;33408;52.062;11.722;2022-10-16T07:53:39;101064.53;;;16.47;100.00
47670;BME280;33408;52.062;11.722;2022-10-16T07:56:08;101059.47;;;16.42;100.00
47670;BME280;33408;52.062;11.722;2022-10-16T07:58:35;101064.97;;;16.36;100.00
47670;BME280;33408;52.062;11.722;2022-10-16T08:01:03;101075.38;;;16.37;100.00
47670;BME280;33408;52.062;11.722;2022-10-16T08:03:31;101079.06;;;16.32;100.00
47670;BME280;33408;52.062;11.722;2022-10-16T08:05:58;101070.47;;;16.28;100.00
47670;BME280;33408;52.062;11.722;2022-10-16T08:08:25;101071.25;;;16.30;100.00
47670;BME280;33408;52.062;11.722;2022-10-16T08:10:51;101069.63;;;16.28;100.00
47670;BME280;33408;52.062;11.722;2022-10-16T08:13:19;101079.56;;;16.18;100.00
47670;BME280;33408;52.062;11.722;2022-10-16T08:15:46;101083.00;;;16.20;100.00
47670;BME280;33408;52.062;11.722;2022-10-16T08:18:14;101079.50;;;16.19;100.00
47670;BME280;33408;52.062;11.722;2022-10-16T08:20:41;101084.72;;;16.19;100.00
47670;BME280;33408;52.062;11.722;2022-10-16T08:23:09;101093.66;;;16.14;100.00
47670;BME280;33408;52.062;11.722;2022-10-16T08:25:37;101099.75;;;16.14;100.00
47670;BME280;33408;52.062;11.722;2022-10-16T08:28:04;101105.03;;;16.13;100.00
47670;BME280;33408;52.062;11.722;2022-10-16T08:30:33;101106.59;;;16.18;100.00
47670;BME280;33408;52.062;11.722;2022-10-16T08:32:59;101107.22;;;16.25;100.00
47670;BME280;33408;52.062;11.722;2022-10-16T08:35:26;101102.81;;;16.26;100.00
47670;BME280;33408;52.062;11.722;2022-10-16T08:37:53;101097.09;;;16.39;100.00
47670;BME280;33408;52.062;11.722;2022-10-16T08:40:22;101096.66;;;16.52;100.00
47670;BME280;33408;52.062;11.722;2022-10-16T08:43:09;101092.03;;;16.81;100.00
47670;BME280;33408;52.062;11.722;2022-10-16T08:46:01;101094.06;;;16.74;100.00
47670;BME280;33408;52.062;11.722;2022-10-16T08:48:37;101108.00;;;16.74;100.00
47670;BME280;33408;52.062;11.722;2022-10-16T08:51:08;101112.88;;;16.84;100.00
47670;BME280;33408;52.062;11.722;2022-10-16T08:53:38;101122.25;;;16.91;100.00
47670;BME280;33408;52.062;11.722;2022-10-16T08:56:09;101127.31;;;16.95;100.00
47670;BME280;33408;52.062;11.722;2022-10-16T08:58:35;101136.78;;;16.98;100.00
47670;BME280;33408;52.062;11.722;2022-10-16T09:01:11;101129.75;;;17.00;100.00
47670;BME280;33408;52.062;11.722;2022-10-16T09:03:49;101128.81;;;17.01;100.00
47670;BME280;33408;52.062;11.722;2022-10-16T09:06:44;101131.38;;;17.03;100.00
47670;BME280;33408;52.062;11.722;2022-10-16T09:09:15;101147.09;;;17.03;100.00
47670;BME280;33408;52.062;11.722;2022-10-16T09:11:48;101154.78;;;17.07;100.00
47670;BME280;33408;52.062;11.722;2022-10-16T09:14:39;101144.91;;;17.14;100.00
47670;BME280;33408;52.062;11.722;2022-10-16T09:17:21;101140.16;;;17.24;100.00
47670;BME280;33408;52.062;11.722;2022-10-16T09:19:53;101148.31;;;17.60;100.00
47670;BME280;33408;52.062;11.722;2022-10-16T09:22:27;101141.56;;;17.75;100.00
47670;BME280;33408;52.062;11.722;2022-10-16T09:24:55;101142.34;;;17.77;100.00
47670;BME280;33408;52.062;11.722;2022-10-16T09:27:25;101140.41;;;17.82;100.00
47670;BME280;33408;52.062;11.722;2022-10-16T09:29:53;101138.09;;;17.75;100.00
47670;BME280;33408;52.062;11.722;2022-10-16T09:32:22;101156.28;;;17.79;100.00
47670;BME280;33408;52.062;11.722;2022-10-16T09:34:50;101139.59;;;17.80;100.00
47670;BME280;33408;52.062;11.722;2022-10-16T09:37:20;101152.47;;;17.86;100.00
47670;BME280;33408;52.062;11.722;2022-10-16T09:39:49;101150.38;;;17.95;100.00
47670;BME280;33408;52.062;11.722;2022-10-16T09:42:17;101147.56;;;17.99;100.00
47670;BME280;33408;52.062;11.722;2022-10-16T09:44:47;101156.72;;;18.11;100.00
47670;BME280;33408;52.062;11.722;2022-10-16T09:47:17;101158.72;;;18.04;100.00
47670;BME280;33408;52.062;11.722;2022-10-16T09:49:54;101162.03;;;18.29;100.00
47670;BME280;33408;52.062;11.722;2022-10-16T09:52:24;101163.16;;;18.44;100.00
47670;BME280;33408;52.062;11.722;2022-10-16T09:54:52;101166.75;;;18.41;100.00
47670;BME280;33408;52.062;11.722;2022-10-16T09:57:19;101174.91;;;18.35;100.00
47670;BME280;33408;52.062;11.722;2022-10-16T09:59:47;101174.09;;;18.53;100.00
47670;BME280;33408;52.062;11.722;2022-10-16T10:02:15;101179.53;;;18.69;100.00
47670;BME280;33408;52.062;11.722;2022-10-16T10:04:48;101174.56;;;18.82;100.00
47670;BME280;33408;52.062;11.722;2022-10-16T10:07:24;101175.38;;;18.64;100.00
47670;BME280;33408;52.062;11.722;2022-10-16T10:09:52;101163.03;;;18.66;100.00
47670;BME280;33408;52.062;11.722;2022-10-16T10:12:21;101181.41;;;18.66;100.00
47670;BME280;33408;52.062;11.722;2022-10-16T10:14:51;101177.53;;;18.74;100.00
47670;BME280;33408;52.062;11.722;2022-10-16T10:17:20;101181.63;;;18.80;100.00
47670;BME280;33408;52.062;11.722;2022-10-16T10:19:49;101173.22;;;18.92;100.00
47670;BME280;33408;52.062;11.722;2022-10-16T10:22:27;101172.13;;;19.16;100.00
47670;BME280;33408;52.062;11.722;2022-10-16T10:24:56;101183.63;;;19.68;100.00
47670;BME280;33408;52.062;11.722;2022-10-16T10:27:29;101179.81;;;19.57;94.61
47670;BME280;33408;52.062;11.722;2022-10-16T10:30:02;101181.94;;;19.67;95.41
47670;BME280;33408;52.062;11.722;2022-10-16T10:32:32;101176.31;;;19.39;93.98
47670;BME280;33408;52.062;11.722;2022-10-16T10:35:12;101186.50;;;19.27;94.32
47670;BME280;33408;52.062;11.722;2022-10-16T10:38:05;101186.94;;;19.18;94.92
47670;BME280;33408;52.062;11.722;2022-10-16T10:40:42;101177.44;;;18.97;91.45
47670;BME280;33408;52.062;11.722;2022-10-16T10:43:19;101177.13;;;19.03;92.71
47670;BME280;33408;52.062;11.722;2022-10-16T10:45:52;101176.50;;;18.98;93.07
47670;BME280;33408;52.062;11.722;2022-10-16T10:48:39;101184.22;;;19.01;92.48
47670;BME280;33408;52.062;11.722;2022-10-16T10:51:13;101193.56;;;19.08;93.20
47670;BME280;33408;52.062;11.722;2022-10-16T10:53:48;101188.22;;;18.90;95.35
47670;BME280;33408;52.062;11.722;2022-10-16T10:56:34;101193.69;;;18.86;95.29
47670;BME280;33408;52.062;11.722;2022-10-16T10:59:22;101185.47;;;18.93;94.01
47670;BME280;33408;52.062;11.722;2022-10-16T11:01:56;101185.81;;;18.86;93.90
47670;BME280;33408;52.062;11.722;2022-10-16T11:04:38;101191.75;;;18.89;92.98
47670;BME280;33408;52.062;11.722;2022-10-16T11:07:12;101197.41;;;18.80;92.56
47670;BME280;33408;52.062;11.722;2022-10-16T11:09:46;101203.78;;;18.74;93.83
47670;BME280;33408;52.062;11.722;2022-10-16T11:12:17;101195.22;;;18.71;93.01
47670;BME280;33408;52.062;11.722;2022-10-16T11:14:49;101194.53;;;18.66;89.66
47670;BME280;33408;52.062;11.722;2022-10-16T11:17:21;101198.38;;;18.58;89.60
47670;BME280;33408;52.062;11.722;2022-10-16T11:19:54;101200.88;;;18.62;89.50
47670;BME280;33408;52.062;11.722;2022-10-16T11:22:27;101198.75;;;18.70;89.82
47670;BME280;33408;52.062;11.722;2022-10-16T11:25:02;101197.59;;;18.75;90.24
47670;BME280;33408;52.062;11.722;2022-10-16T11:27:37;101194.81;;;18.99;89.05
47670;BME280;33408;52.062;11.722;2022-10-16T11:30:13;101196.28;;;19.24;84.01
47670;BME280;33408;52.062;11.722;2022-10-16T11:32:49;101192.16;;;19.37;81.79
47670;BME280;33408;52.062;11.722;2022-10-16T11:35:19;101189.78;;;19.50;82.09
47670;BME280;33408;52.062;11.722;2022-10-16T11:37:50;101202.88;;;19.52;81.06
47670;BME280;33408;52.062;11.722;2022-10-16T11:40:24;101194.75;;;19.56;79.22
47670;BME280;33408;52.062;11.722;2022-10-16T11:42:58;101196.06;;;19.65;78.76
47670;BME280;33408;52.062;11.722;2022-10-16T11:45:33;101203.13;;;19.64;77.53
47670;BME280;33408;52.062;11.722;2022-10-16T11:48:11;101202.91;;;19.69;77.37
47670;BME280;33408;52.062;11.722;2022-10-16T11:50:43;101202.31;;;19.81;76.44
47670;BME280;33408;52.062;11.722;2022-10-16T11:53:16;101205.72;;;20.01;75.99
47670;BME280;33408;52.062;11.722;2022-10-16T11:55:49;101205.59;;;19.67;76.15
47670;BME280;33408;52.062;11.722;2022-10-16T11:58:24;101205.63;;;20.02;76.18
47670;BME280;33408;52.062;11.722;2022-10-16T12:00:59;101204.06;;;20.33;75.84
47670;BME280;33408;52.062;11.722;2022-10-16T12:03:28;101200.59;;;20.33;72.75
47670;BME280;33408;52.062;11.722;2022-10-16T12:06:05;101198.63;;;20.36;71.79
47670;BME280;33408;52.062;11.722;2022-10-16T12:08:36;101209.22;;;20.52;71.90
47670;BME280;33408;52.062;11.722;2022-10-16T12:11:19;101203.56;;;20.60;71.75
47670;BME280;33408;52.062;11.722;2022-10-16T12:13:46;101200.41;;;20.53;70.42
47670;BME280;33408;52.062;11.722;2022-10-16T12:16:22;101208.22;;;20.55;70.40
47670;BME280;33408;52.062;11.722;2022-10-16T12:18:49;101201.84;;;20.59;69.07
47670;BME280;33408;52.062;11.722;2022-10-16T12:21:17;101208.53;;;20.49;68.64
47670;BME280;33408;52.062;11.722;2022-10-16T12:23:48;101205.22;;;20.45;68.17
47670;BME280;33408;52.062;11.722;2022-10-16T12:26:24;101207.53;;;20.69;69.06
47670;BME280;33408;52.062;11.722;2022-10-16T12:28:52;101208.81;;;20.60;67.62
47670;BME280;33408;52.062;11.722;2022-10-16T12:31:19;101216.63;;;20.79;67.20
47670;BME280;33408;52.062;11.722;2022-10-16T12:33:58;101217.66;;;20.92;66.25
47670;BME280;33408;52.062;11.722;2022-10-16T12:36:30;101227.56;;;20.71;65.87
47670;BME280;33408;52.062;11.722;2022-10-16T12:38:58;101229.41;;;21.03;65.84
47670;BME280;33408;52.062;11.722;2022-10-16T12:41:28;101231.97;;;21.20;65.24
47670;BME280;33408;52.062;11.722;2022-10-16T12:43:55;101234.16;;;21.12;63.51
47670;BME280;33408;52.062;11.722;2022-10-16T12:46:37;101235.47;;;21.21;63.07